Time;durP1;ratioP1;P1;durP2;ratioP2;P2;SDS_P1;SDS_P2;PMS_P1;PMS_P2;Temp;Humidity;BMP_temperature;BMP_pressure;BME280_temperature;BME280_humidity;BME280_pressure;Samples;Min_cycle;Max_cycle;Signal;HPM_P1;HPM_P2
2021/11/27 00:00:38;;;;;;;7.47;1.33;;;17.70;99.90;;;;;;5044662;28;20439;-78
2021/11/27 00:03:06;;;;;;;7.70;1.42;;;17.60;99.90;;;;;;5044089;28;20028;-77
2021/11/27 00:05:37;;;;;;;9.07;1.83;;;17.40;99.90;;;;;;5051796;28;20598;-77
2021/11/27 00:08:07;;;;;;;6.78;1.48;;;17.50;99.90;;;;;;5047220;28;20087;-77
2021/11/27 00:10:35;;;;;;;9.70;1.20;;;17.60;99.90;;;;;;5046788;28;20021;-77
2021/11/27 00:13:04;;;;;;;9.70;1.20;;;17.70;99.90;;;;;;5052774;28;20024;-77
2021/11/27 00:15:33;;;;;;;7.93;1.83;;;17.90;99.90;;;;;;5049917;28;20383;-77
2021/11/27 00:18:01;;;;;;;6.63;1.45;;;17.90;99.90;;;;;;5046169;28;20021;-77
2021/11/27 00:20:34;;;;;;;8.32;1.60;;;17.90;99.90;;;;;;5047336;28;20092;-78
2021/11/27 00:23:02;;;;;;;8.85;1.67;;;18.10;99.90;;;;;;5046789;28;20049;-77
2021/11/27 00:25:29;;;;;;;7.97;1.55;;;18.20;99.90;;;;;;5046894;28;20100;-77
2021/11/27 00:27:57;;;;;;;5.13;2.50;;;18.40;99.90;;;;;;5047839;28;20028;-77
2021/11/27 00:30:27;;;;;;;8.88;1.45;;;18.40;99.90;;;;;;5049748;28;20049;-78
2021/11/27 00:32:55;;;;;;;5.38;1.67;;;18.40;99.90;;;;;;5050840;28;20502;-78
2021/11/27 00:35:24;;;;;;;6.22;1.73;;;18.30;99.90;;;;;;5046368;28;20035;-77
2021/11/27 00:37:54;;;;;;;13.68;1.60;;;18.20;99.90;;;;;;5064668;28;20037;-78
2021/11/27 00:40:22;;;;;;;7.68;1.35;;;18.10;99.90;;;;;;5061894;28;20441;-77
2021/11/27 00:42:51;;;;;;;4.68;1.10;;;18.10;99.90;;;;;;5054598;28;20072;-78
2021/11/27 00:45:20;;;;;;;8.10;2.33;;;18.00;99.90;;;;;;5050714;28;20025;-77
2021/11/27 00:47:52;;;;;;;10.30;2.15;;;18.00;99.90;;;;;;5051833;28;20495;-77
2021/11/27 00:50:24;;;;;;;10.13;1.80;;;17.90;99.90;;;;;;5052893;28;20361;-77
2021/11/27 00:52:55;;;;;;;11.37;2.83;;;17.90;99.90;;;;;;5051422;28;20037;-77
2021/11/27 00:55:28;;;;;;;5.43;1.35;;;18.00;99.90;;;;;;5050471;28;20278;-77
2021/11/27 00:57:56;;;;;;;11.30;2.70;;;17.90;99.90;;;;;;5050965;28;20033;-78
2021/11/27 01:00:31;;;;;;;9.80;2.03;;;18.00;99.90;;;;;;5038786;28;20044;-78
2021/11/27 01:03:17;;;;;;;8.43;1.60;;;18.20;99.90;;;;;;5034041;28;20051;-76
2021/11/27 01:05:47;;;;;;;13.13;3.25;;;18.20;99.90;;;;;;5045924;28;20054;-77
2021/11/27 01:08:15;;;;;;;10.02;1.90;;;18.30;99.90;;;;;;5057301;28;20049;-77
2021/11/27 01:10:53;;;;;;;10.10;1.58;;;18.40;99.90;;;;;;5055570;28;20025;-79
2021/11/27 01:13:20;;;;;;;9.75;1.58;;;18.50;99.90;;;;;;5041394;28;20067;-76
2021/11/27 01:15:48;;;;;;;6.43;0.98;;;18.50;99.90;;;;;;5049822;28;20021;-77
2021/11/27 01:18:17;;;;;;;6.93;1.45;;;18.50;99.90;;;;;;5044999;28;20032;-78
2021/11/27 01:20:52;;;;;;;4.93;1.35;;;18.50;99.90;;;;;;5049644;28;20068;-77
2021/11/27 01:23:20;;;;;;;10.18;1.77;;;18.40;99.90;;;;;;5044423;28;20025;-78
2021/11/27 01:25:48;;;;;;;12.68;2.67;;;18.20;99.90;;;;;;5048330;28;20082;-78
2021/11/27 01:28:19;;;;;;;6.72;2.17;;;18.20;99.90;;;;;;5038638;28;20025;-76
2021/11/27 01:30:53;;;;;;;9.57;2.25;;;18.10;99.90;;;;;;5049008;28;20071;-78
2021/11/27 01:33:21;;;;;;;10.85;2.00;;;17.90;99.90;;;;;;5038478;28;20049;-79
2021/11/27 01:35:50;;;;;;;6.70;1.70;;;17.90;99.90;;;;;;5044589;28;20041;-78
2021/11/27 01:38:19;;;;;;;7.80;1.73;;;18.10;99.90;;;;;;5040966;28;20040;-78
2021/11/27 01:40:48;;;;;;;9.35;3.55;;;18.20;99.90;;;;;;5050127;28;20048;-80
2021/11/27 01:43:15;;;;;;;9.77;1.77;;;18.20;99.90;;;;;;5042121;28;20036;-77
2021/11/27 01:45:43;;;;;;;7.25;0.95;;;18.00;99.90;;;;;;5045180;28;20104;-78
2021/11/27 01:48:19;;;;;;;4.47;1.02;;;17.90;99.90;;;;;;5045822;28;20391;-77
2021/11/27 01:51:04;;;;;;;10.82;1.70;;;17.80;99.90;;;;;;5042266;28;20032;-78
2021/11/27 01:53:36;;;;;;;8.57;1.95;;;17.80;99.90;;;;;;5043619;28;20120;-77
2021/11/27 01:56:07;;;;;;;8.35;1.02;;;17.80;99.90;;;;;;5028677;28;20487;-75
2021/11/27 01:58:35;;;;;;;4.47;1.70;;;17.80;99.90;;;;;;5041446;28;20119;-76
2021/11/27 02:01:13;;;;;;;12.18;1.73;;;17.80;99.90;;;;;;5038611;28;20064;-78
2021/11/27 02:03:41;;;;;;;21.75;2.83;;;17.80;99.90;;;;;;5043055;28;20148;-74
2021/11/27 02:06:18;;;;;;;8.95;1.17;;;17.80;99.90;;;;;;5033675;28;20049;-76
2021/11/27 02:08:52;;;;;;;2.08;1.20;;;18.00;99.90;;;;;;5039007;28;20025;-76
2021/11/27 02:11:28;;;;;;;4.50;0.90;;;18.20;99.90;;;;;;5045223;28;20048;-76
2021/11/27 02:13:57;;;;;;;7.97;1.00;;;18.40;99.90;;;;;;5046252;28;20092;-77
2021/11/27 02:16:26;;;;;;;5.05;1.20;;;18.60;99.90;;;;;;5047452;28;20108;-76
2021/11/27 02:18:54;;;;;;;5.85;0.90;;;18.80;99.90;;;;;;5039054;28;20033;-76
2021/11/27 02:21:24;;;;;;;3.17;0.65;;;18.90;99.90;;;;;;5038509;28;20095;-77
2021/11/27 02:23:53;;;;;;;4.40;1.35;;;19.00;99.90;;;;;;5041535;28;20029;-75
2021/11/27 02:26:29;;;;;;;6.68;1.45;;;19.10;99.90;;;;;;5037583;28;20032;-76
2021/11/27 02:28:58;;;;;;;;;;;19.10;99.90;;;;;;5043715;28;20029;-77
2021/11/27 02:31:25;;;;;;;7.30;1.80;;;19.00;99.90;;;;;;5045023;28;19951;-78
2021/11/27 02:33:55;;;;;;;3.72;1.17;;;18.90;99.90;;;;;;5052774;28;20017;-79
2021/11/27 02:36:28;;;;;;;6.68;1.38;;;18.80;99.90;;;;;;5039823;28;20037;-78
2021/11/27 02:38:57;;;;;;;7.45;0.93;;;18.50;99.90;;;;;;5038710;28;20030;-79
2021/11/27 02:41:26;;;;;;;3.90;0.88;;;18.10;99.90;;;;;;5048085;28;20052;-78
2021/11/27 02:43:57;;;;;;;6.50;1.35;;;17.90;99.90;;;;;;5040028;28;20119;-79
2021/11/27 02:46:24;;;;;;;10.45;2.30;;;17.80;99.90;;;;;;5045170;28;20029;-77
2021/11/27 02:48:52;;;;;;;9.85;1.63;;;17.80;99.90;;;;;;5052220;28;20028;-77
2021/11/27 02:51:19;;;;;;;6.25;1.60;;;17.90;99.90;;;;;;5053673;28;20423;-79
2021/11/27 02:53:47;;;;;;;5.22;2.05;;;18.20;99.90;;;;;;5056226;28;20420;-77
2021/11/27 02:56:14;;;;;;;8.50;0.88;;;18.40;99.90;;;;;;5053055;28;20028;-76
2021/11/27 02:58:42;;;;;;;7.55;1.52;;;18.70;99.90;;;;;;5052351;28;20451;-78
2021/11/27 03:01:11;;;;;;;7.53;1.05;;;18.90;99.90;;;;;;5052345;28;20053;-78
2021/11/27 03:03:39;;;;;;;8.52;1.52;;;18.80;99.90;;;;;;5045876;28;20048;-77
2021/11/27 03:06:08;;;;;;;5.63;1.33;;;18.70;99.90;;;;;;5052660;28;20037;-79
2021/11/27 03:08:37;;;;;;;6.55;1.63;;;18.40;99.90;;;;;;5055105;28;20465;-78
2021/11/27 03:11:06;;;;;;;7.82;0.98;;;18.30;99.90;;;;;;5051642;28;20041;-78
2021/11/27 03:13:39;;;;;;;7.28;0.90;;;18.20;99.90;;;;;;5053034;28;20516;-78
2021/11/27 03:16:07;;;;;;;7.45;0.70;;;18.30;99.90;;;;;;5048356;28;20396;-79
2021/11/27 03:18:35;;;;;;;5.82;1.40;;;18.50;99.90;;;;;;5052663;28;20031;-77
2021/11/27 03:21:03;;;;;;;7.32;1.48;;;18.80;99.90;;;;;;5045389;28;20029;-78
2021/11/27 03:23:30;;;;;;;7.03;1.80;;;19.20;99.90;;;;;;5041435;28;20029;-80
2021/11/27 03:25:58;;;;;;;6.10;1.55;;;19.70;99.90;;;;;;5042897;28;20118;-77
2021/11/27 03:28:26;;;;;;;13.60;1.10;;;20.10;99.90;;;;;;5043776;28;20021;-78
2021/11/27 03:30:53;;;;;;;9.68;1.65;;;20.40;99.90;;;;;;5047535;28;20041;-76
2021/11/27 03:33:21;;;;;;;10.77;1.70;;;20.40;99.90;;;;;;5050808;28;20025;-77
2021/11/27 03:35:49;;;;;;;4.82;1.13;;;20.20;99.90;;;;;;5044361;28;20087;-79
2021/11/27 03:38:16;;;;;;;12.65;2.53;;;19.80;99.90;;;;;;5052114;28;20025;-76
2021/11/27 03:40:44;;;;;;;4.57;0.95;;;19.70;99.90;;;;;;5048805;28;20112;-77
2021/11/27 03:43:12;;;;;;;7.82;1.70;;;19.60;99.90;;;;;;5049812;28;20534;-79
2021/11/27 03:45:39;;;;;;;10.20;1.88;;;19.60;99.90;;;;;;5042184;28;20026;-78
2021/11/27 03:48:16;;;;;;;5.45;1.83;;;19.60;99.90;;;;;;5053600;28;20025;-79
2021/11/27 03:50:48;;;;;;;6.25;2.35;;;19.60;99.90;;;;;;5049004;28;20462;-77
2021/11/27 03:53:25;;;;;;;8.73;1.20;;;19.50;99.90;;;;;;5052765;28;20029;-78
2021/11/27 03:55:55;;;;;;;12.48;1.20;;;19.20;99.90;;;;;;5050630;28;20021;-79
2021/11/27 03:58:22;;;;;;;7.85;1.60;;;19.10;99.90;;;;;;5044626;28;20096;-79
2021/11/27 04:00:52;;;;;;;4.72;0.80;;;19.10;99.90;;;;;;5052794;28;20052;-76
2021/11/27 04:03:20;;;;;;;9.35;1.67;;;19.10;99.90;;;;;;5051303;28;20426;-77
2021/11/27 04:05:51;;;;;;;9.68;1.65;;;19.10;99.90;;;;;;5050474;28;20464;-78
2021/11/27 04:08:19;;;;;;;7.03;0.95;;;19.00;99.90;;;;;;5052613;28;20025;-76
2021/11/27 04:10:47;;;;;;;11.63;2.47;;;19.10;99.90;;;;;;5051582;28;20056;-77
2021/11/27 04:13:15;;;;;;;6.30;1.95;;;19.30;99.90;;;;;;5043167;28;20430;-77
2021/11/27 04:15:44;;;;;;;11.52;2.00;;;19.40;99.90;;;;;;5044906;28;20033;-77
2021/11/27 04:18:12;;;;;;;9.43;1.95;;;19.40;99.90;;;;;;5041316;28;20018;-77
2021/11/27 04:20:42;;;;;;;13.07;2.28;;;19.30;99.90;;;;;;5042149;28;20047;-76
2021/11/27 04:23:10;;;;;;;6.88;1.40;;;19.30;99.90;;;;;;5058072;28;20024;-76
2021/11/27 04:25:39;;;;;;;10.40;2.33;;;19.30;99.90;;;;;;5057250;28;20031;-76
2021/11/27 04:28:06;;;;;;;6.03;1.40;;;19.40;99.90;;;;;;5051815;28;20033;-76
2021/11/27 04:30:34;;;;;;;9.73;1.92;;;19.40;99.90;;;;;;5048535;28;20641;-76
2021/11/27 04:33:02;;;;;;;11.88;1.35;;;19.50;99.90;;;;;;5049116;28;20025;-78
2021/11/27 04:35:31;;;;;;;8.68;1.35;;;19.40;99.90;;;;;;5047567;28;20049;-76
2021/11/27 04:37:58;;;;;;;8.82;1.45;;;19.10;99.90;;;;;;5051619;28;20468;-76
2021/11/27 04:40:27;;;;;;;5.97;1.17;;;18.80;99.90;;;;;;5051084;28;20132;-76
2021/11/27 04:42:55;;;;;;;12.93;2.25;;;18.70;99.90;;;;;;5043954;28;20597;-76
2021/11/27 04:45:23;;;;;;;4.07;0.80;;;18.70;99.90;;;;;;5050718;28;20033;-78
2021/11/27 04:47:50;;;;;;;10.25;1.75;;;18.70;99.90;;;;;;5051032;28;20025;-76
2021/11/27 04:50:19;;;;;;;8.15;1.02;;;18.80;99.90;;;;;;5050946;28;20021;-75
2021/11/27 04:52:47;;;;;;;7.30;1.30;;;18.90;99.90;;;;;;5051859;28;20068;-77
2021/11/27 04:55:16;;;;;;;7.47;1.38;;;19.00;99.90;;;;;;5048491;28;20480;-77
2021/11/27 04:57:44;;;;;;;12.63;1.00;;;19.10;99.90;;;;;;5046055;28;20054;-77
2021/11/27 05:00:24;;;;;;;6.55;1.20;;;19.40;99.90;;;;;;5049569;28;20037;-78
2021/11/27 05:02:52;;;;;;;6.13;1.90;;;19.70;99.90;;;;;;5050824;28;20028;-77
2021/11/27 05:05:20;;;;;;;3.80;0.60;;;19.70;99.90;;;;;;5051164;28;20476;-80
2021/11/27 05:07:47;;;;;;;14.88;1.13;;;19.80;99.90;;;;;;5046634;28;20075;-77
2021/11/27 05:10:15;;;;;;;12.68;1.17;;;19.80;99.90;;;;;;5047318;28;20032;-76
2021/11/27 05:12:43;;;;;;;7.07;1.27;;;19.50;99.90;;;;;;5050823;28;20044;-76
2021/11/27 05:15:11;;;;;;;9.35;1.08;;;19.30;99.90;;;;;;5050426;28;20021;-76
2021/11/27 05:17:39;;;;;;;6.40;0.80;;;18.80;99.90;;;;;;5042488;28;20037;-76
2021/11/27 05:20:08;;;;;;;3.72;0.60;;;18.40;99.90;;;;;;5049021;28;20086;-76
2021/11/27 05:22:35;;;;;;;3.38;1.40;;;18.00;99.90;;;;;;5052196;28;20064;-77
2021/11/27 05:25:05;;;;;;;4.85;0.90;;;17.60;99.90;;;;;;5051488;28;20089;-79
2021/11/27 05:27:33;;;;;;;7.85;1.23;;;17.50;99.90;;;;;;5046655;28;20025;-77
2021/11/27 05:30:00;;;;;;;9.38;1.15;;;17.40;99.90;;;;;;5042157;28;20488;-77
2021/11/27 05:33:15;;;;;;;4.85;1.00;;;17.40;99.90;;;;;;5045763;28;20032;-77
2021/11/27 05:35:15;;;;;;;7.10;0.80;;;17.50;99.90;;;;;;5039425;28;20045;-76
2021/11/27 05:37:45;;;;;;;6.38;1.25;;;17.60;99.90;;;;;;5049713;28;20044;-77
2021/11/27 05:40:13;;;;;;;10.60;1.13;;;17.70;99.90;;;;;;5050520;28;20475;-76
2021/11/27 05:42:43;;;;;;;4.53;0.85;;;17.70;99.90;;;;;;5045992;28;20921;-77
2021/11/27 05:45:12;;;;;;;10.15;2.35;;;17.80;99.90;;;;;;5045008;28;20555;-77
2021/11/27 05:47:39;;;;;;;3.88;1.58;;;18.00;99.90;;;;;;5048242;28;20025;-77
2021/11/27 05:50:08;;;;;;;7.13;0.90;;;18.20;99.90;;;;;;5048304;28;20104;-78
2021/11/27 05:52:35;;;;;;;8.48;2.40;;;18.50;99.90;;;;;;5034131;28;20029;-76
2021/11/27 05:55:04;;;;;;;8.93;2.60;;;18.70;99.90;;;;;;5047512;28;20017;-76
2021/11/27 05:57:31;;;;;;;7.85;1.63;;;18.90;99.90;;;;;;5043161;28;20375;-75
2021/11/27 05:59:59;;;;;;;10.45;2.00;;;18.90;99.90;;;;;;5048459;28;20024;-76
2021/11/27 06:02:26;;;;;;;9.90;2.88;;;18.90;99.90;;;;;;5047282;28;20044;-76
2021/11/27 06:04:54;;;;;;;9.80;1.40;;;18.70;99.90;;;;;;5039064;28;20021;-78
2021/11/27 06:07:21;;;;;;;9.00;2.13;;;18.80;99.90;;;;;;5049269;28;20029;-77
2021/11/27 06:09:48;;;;;;;11.45;1.50;;;18.70;99.90;;;;;;5047613;28;20025;-77
2021/11/27 06:12:16;;;;;;;10.50;2.10;;;18.80;99.90;;;;;;5041724;28;20108;-77
2021/11/27 06:14:43;;;;;;;7.28;1.73;;;18.70;99.90;;;;;;5041004;28;20435;-79
2021/11/27 06:17:10;;;;;;;14.60;2.25;;;18.70;99.90;;;;;;5045048;28;20040;-77
2021/11/27 06:19:38;;;;;;;10.32;1.90;;;18.60;99.90;;;;;;5037697;28;20032;-78
2021/11/27 06:22:05;;;;;;;12.05;1.23;;;18.60;99.90;;;;;;5042081;28;20685;-79
2021/11/27 06:24:33;;;;;;;11.43;1.98;;;18.50;99.90;;;;;;5044857;28;20036;-78
2021/11/27 06:27:00;;;;;;;12.50;1.88;;;18.50;99.90;;;;;;5046652;28;20121;-79
2021/11/27 06:29:27;;;;;;;10.50;1.67;;;18.40;99.90;;;;;;5049820;28;20047;-79
2021/11/27 06:31:55;;;;;;;10.70;1.60;;;18.40;99.90;;;;;;5045763;28;20037;-75
2021/11/27 06:34:22;;;;;;;11.52;2.17;;;18.30;99.90;;;;;;5041953;28;20572;-76
2021/11/27 06:36:49;;;;;;;8.93;2.80;;;18.30;99.90;;;;;;5039385;28;20021;-77
2021/11/27 06:39:17;;;;;;;8.15;1.67;;;18.30;99.90;;;;;;5045152;28;20475;-77
2021/11/27 06:41:44;;;;;;;11.23;2.58;;;18.10;99.90;;;;;;5043531;28;20041;-76
2021/11/27 06:44:12;;;;;;;11.10;2.05;;;18.10;99.90;;;;;;5039330;28;20097;-75
2021/11/27 06:46:39;;;;;;;15.63;2.22;;;18.10;99.90;;;;;;5044320;28;20399;-76
2021/11/27 06:49:06;;;;;;;10.75;1.85;;;18.00;99.90;;;;;;5034974;28;20052;-77
2021/11/27 06:51:34;;;;;;;15.52;2.35;;;18.00;99.90;;;;;;5047124;28;20048;-76
2021/11/27 06:54:01;;;;;;;10.52;2.17;;;18.00;99.90;;;;;;5033074;28;20465;-78
2021/11/27 06:56:28;;;;;;;20.17;2.40;;;17.90;99.90;;;;;;5037037;28;20040;-79
2021/11/27 06:58:55;;;;;;;7.18;2.17;;;17.90;99.90;;;;;;5038859;28;20468;-79
2021/11/27 07:01:23;;;;;;;12.85;2.10;;;17.90;99.90;;;;;;5037203;28;20099;-76
2021/11/27 07:03:50;;;;;;;13.98;2.80;;;17.90;99.90;;;;;;5045768;28;20025;-76
2021/11/27 07:06:17;;;;;;;12.18;2.60;;;17.80;99.90;;;;;;5046945;28;20041;-75
2021/11/27 07:08:45;;;;;;;10.15;3.22;;;17.80;99.90;;;;;;5043076;28;20096;-76
2021/11/27 07:11:13;;;;;;;10.52;2.22;;;17.70;99.90;;;;;;5038001;28;20037;-76
2021/11/27 07:13:40;;;;;;;15.32;3.05;;;17.60;99.90;;;;;;5046502;28;20021;-76
2021/11/27 07:16:08;;;;;;;12.23;2.72;;;17.50;99.90;;;;;;5040045;28;20037;-77
2021/11/27 07:18:35;;;;;;;9.90;2.05;;;17.40;99.90;;;;;;5036093;28;21009;-75
2021/11/27 07:21:02;;;;;;;8.35;1.80;;;17.30;99.90;;;;;;5040212;28;20133;-78
2021/11/27 07:23:30;;;;;;;12.82;1.50;;;17.20;99.90;;;;;;5040717;28;20013;-77
2021/11/27 07:25:58;;;;;;;14.93;2.85;;;17.10;99.90;;;;;;5035069;28;20040;-76
2021/11/27 07:28:26;;;;;;;9.32;3.13;;;17.00;99.90;;;;;;5039774;28;20126;-78
2021/11/27 07:30:53;;;;;;;10.63;2.83;;;17.00;99.90;;;;;;5039089;28;20037;-77
2021/11/27 07:33:20;;;;;;;13.55;2.72;;;17.00;99.90;;;;;;5041477;28;20024;-79
2021/11/27 07:35:50;;;;;;;6.82;1.00;;;17.00;99.90;;;;;;5039484;28;20044;-78
2021/11/27 07:38:17;;;;;;;7.50;1.60;;;16.90;99.90;;;;;;5045021;28;20026;-76
2021/11/27 07:40:45;;;;;;;11.27;1.90;;;17.00;99.90;;;;;;5047455;28;20036;-77
2021/11/27 07:43:12;;;;;;;9.35;1.27;;;16.90;99.90;;;;;;5043725;28;20040;-76
2021/11/27 07:45:39;;;;;;;7.32;1.52;;;16.90;99.90;;;;;;5046345;28;20162;-78
2021/11/27 07:48:07;;;;;;;8.18;2.20;;;16.90;99.90;;;;;;5046823;28;20688;-77
2021/11/27 07:50:35;;;;;;;7.85;2.08;;;16.90;99.90;;;;;;5043277;28;20060;-77
2021/11/27 07:53:03;;;;;;;12.45;1.63;;;16.80;99.90;;;;;;5039761;28;21661;-79
2021/11/27 07:55:30;;;;;;;9.40;1.58;;;16.80;99.90;;;;;;5040773;28;20028;-76
2021/11/27 07:57:57;;;;;;;6.65;1.15;;;16.80;99.90;;;;;;5040316;28;20025;-76
2021/11/27 08:00:25;;;;;;;9.80;1.75;;;16.80;99.90;;;;;;5045426;28;21409;-75
2021/11/27 08:02:52;;;;;;;10.90;4.00;;;16.80;99.90;;;;;;5037720;28;20430;-76
2021/11/27 08:05:20;;;;;;;9.27;1.95;;;16.80;99.90;;;;;;5037729;28;20033;-76
2021/11/27 08:07:48;;;;;;;14.38;1.90;;;16.80;99.90;;;;;;5040104;28;20100;-76
2021/11/27 08:10:17;;;;;;;10.65;2.00;;;16.90;99.90;;;;;;5043870;28;20098;-76
2021/11/27 08:12:44;;;;;;;11.82;1.95;;;16.90;99.90;;;;;;5037968;28;20036;-75
2021/11/27 08:15:12;;;;;;;8.32;2.70;;;17.00;99.90;;;;;;5037697;28;20052;-73
2021/11/27 08:17:42;;;;;;;13.90;2.35;;;16.90;99.90;;;;;;5034360;28;20100;-78
2021/11/27 08:20:11;;;;;;;9.88;1.08;;;17.00;99.90;;;;;;5035022;28;20029;-76
2021/11/27 08:22:41;;;;;;;6.68;2.22;;;17.00;99.90;;;;;;5039128;28;20116;-76
2021/11/27 08:25:09;;;;;;;11.52;1.75;;;17.00;99.90;;;;;;5033368;28;20029;-76
2021/11/27 08:27:37;;;;;;;6.93;1.27;;;17.10;99.90;;;;;;5041118;28;20056;-75
2021/11/27 08:30:07;;;;;;;8.73;1.30;;;17.00;99.90;;;;;;5042054;28;20500;-78
2021/11/27 08:32:35;;;;;;;11.10;1.88;;;17.10;99.90;;;;;;5039725;28;20033;-75
2021/11/27 08:35:02;;;;;;;11.32;1.95;;;17.00;99.90;;;;;;5045705;28;20044;-76
2021/11/27 08:37:30;;;;;;;6.50;1.40;;;16.90;99.90;;;;;;5043404;28;20079;-75
2021/11/27 08:39:58;;;;;;;7.40;1.75;;;16.90;99.90;;;;;;5032999;28;20037;-76
2021/11/27 08:42:26;;;;;;;8.45;2.00;;;16.90;99.90;;;;;;5040024;28;20644;-75
2021/11/27 08:44:54;;;;;;;6.55;1.75;;;16.90;99.90;;;;;;5043944;28;20391;-77
2021/11/27 08:47:22;;;;;;;11.38;1.83;;;16.90;99.90;;;;;;5038530;28;20029;-76
2021/11/27 08:49:49;;;;;;;6.88;1.20;;;16.90;99.90;;;;;;5041744;28;21881;-76
2021/11/27 08:52:16;;;;;;;10.60;2.10;;;16.80;99.90;;;;;;5033173;28;20396;-74
2021/11/27 08:54:44;;;;;;;12.30;2.63;;;16.80;99.90;;;;;;5035795;28;20471;-76
2021/11/27 08:57:11;;;;;;;11.60;2.15;;;16.80;99.90;;;;;;5044166;28;20024;-77
2021/11/27 08:59:39;;;;;;;6.22;1.58;;;16.90;99.90;;;;;;5037973;28;20017;-75
2021/11/27 09:02:06;;;;;;;12.80;1.95;;;16.80;99.90;;;;;;5041160;28;20059;-76
2021/11/27 09:04:34;;;;;;;16.05;3.90;;;16.80;99.90;;;;;;5036185;28;20033;-76
2021/11/27 09:07:03;;;;;;;8.65;2.58;;;16.80;99.90;;;;;;5038340;28;20033;-75
2021/11/27 09:09:31;;;;;;;13.32;1.70;;;16.90;99.90;;;;;;5034223;28;20036;-76
2021/11/27 09:12:00;;;;;;;7.65;1.70;;;16.90;99.90;;;;;;5042338;28;20496;-77
2021/11/27 09:14:28;;;;;;;12.40;2.33;;;16.80;99.90;;;;;;5037762;28;20033;-77
2021/11/27 09:16:56;;;;;;;13.75;3.30;;;16.80;99.90;;;;;;5040124;28;20040;-77
2021/11/27 09:19:23;;;;;;;10.10;1.83;;;16.80;99.90;;;;;;5039992;28;20108;-78
2021/11/27 09:21:50;;;;;;;12.38;3.45;;;16.80;99.90;;;;;;5038415;28;20033;-77
2021/11/27 09:24:19;;;;;;;13.48;2.10;;;16.80;99.90;;;;;;5042367;28;20365;-78
2021/11/27 09:26:48;;;;;;;9.68;1.67;;;16.70;99.90;;;;;;5042730;28;20064;-79
2021/11/27 09:29:18;;;;;;;12.57;2.38;;;16.60;99.90;;;;;;5037290;28;20033;-79
2021/11/27 09:31:46;;;;;;;15.98;3.25;;;16.60;99.90;;;;;;5043136;28;20045;-77
2021/11/27 09:34:14;;;;;;;11.48;3.08;;;16.50;99.90;;;;;;5041332;28;20163;-81
2021/11/27 09:36:42;;;;;;;15.20;2.10;;;16.40;99.90;;;;;;5038883;28;20384;-80
2021/11/27 09:39:14;;;;;;;15.20;1.75;;;16.40;99.90;;;;;;5035705;28;20029;-79
2021/11/27 09:41:43;;;;;;;9.23;2.20;;;16.30;99.90;;;;;;5034203;28;20036;-82
2021/11/27 09:44:13;;;;;;;13.85;2.45;;;16.30;99.90;;;;;;5031301;28;20016;-80
2021/11/27 09:46:42;;;;;;;8.30;1.60;;;16.30;99.90;;;;;;5041534;28;20517;-80
2021/11/27 09:49:17;;;;;;;11.57;1.65;;;16.20;99.90;;;;;;5039580;28;20100;-80
2021/11/27 09:51:46;;;;;;;10.23;2.37;;;16.20;99.90;;;;;;5033971;28;20029;-81
2021/11/27 09:54:17;;;;;;;10.57;3.10;;;16.20;99.90;;;;;;5029742;28;20365;-80
2021/11/27 09:56:46;;;;;;;10.32;1.70;;;16.20;99.90;;;;;;5035411;28;20083;-79
2021/11/27 09:59:14;;;;;;;12.93;1.90;;;16.20;99.90;;;;;;5038960;28;20065;-81
2021/11/27 10:01:45;;;;;;;12.15;1.77;;;16.20;99.90;;;;;;5035643;28;20048;-81
2021/11/27 10:04:14;;;;;;;14.52;2.08;;;16.20;99.90;;;;;;5036283;28;20059;-78
2021/11/27 10:06:50;;;;;;;11.73;3.60;;;16.20;99.90;;;;;;5039643;28;20046;-78
2021/11/27 10:09:23;;;;;;;13.25;1.73;;;16.20;99.90;;;;;;5041585;28;20025;-81
2021/11/27 10:11:53;;;;;;;11.23;1.70;;;16.10;99.90;;;;;;5033345;28;20172;-79
2021/11/27 10:14:21;;;;;;;13.18;2.22;;;16.10;99.90;;;;;;5040107;28;20530;-80
2021/11/27 10:17:02;;;;;;;10.65;2.08;;;16.00;99.90;;;;;;5039959;28;20037;-78
2021/11/27 10:19:43;;;;;;;12.25;3.33;;;16.00;99.90;;;;;;5047175;28;20376;-81
2021/11/27 10:22:13;;;;;;;10.73;1.88;;;16.00;99.90;;;;;;5042564;28;20043;-80
2021/11/27 10:24:41;;;;;;;11.02;1.85;;;16.00;99.90;;;;;;5038252;28;20029;-79
2021/11/27 10:27:29;;;;;;;10.02;1.77;;;16.00;99.90;;;;;;5039382;28;20036;-79
2021/11/27 10:30:07;;;;;;;7.18;1.55;;;15.90;99.90;;;;;;5040120;28;20070;-79
2021/11/27 10:32:40;;;;;;;9.38;3.55;;;16.00;99.90;;;;;;5040246;28;20029;-80
2021/11/27 10:35:12;;;;;;;10.85;2.10;;;15.90;99.90;;;;;;5036861;28;20067;-79
2021/11/27 10:37:42;;;;;;;9.63;1.48;;;15.80;99.90;;;;;;5040566;28;20033;-80
2021/11/27 10:40:17;;;;;;;10.05;1.38;;;15.90;99.90;;;;;;5045439;28;20029;-79
2021/11/27 10:42:51;;;;;;;12.80;2.67;;;15.90;99.90;;;;;;5038461;28;20022;-78
2021/11/27 10:45:25;;;;;;;14.75;2.22;;;15.90;99.90;;;;;;5040593;28;20025;-80
2021/11/27 10:48:14;;;;;;;13.95;2.15;;;15.90;99.90;;;;;;5048162;28;20493;-80
2021/11/27 10:50:44;;;;;;;13.05;2.15;;;15.90;99.90;;;;;;5033435;28;20124;-77
2021/11/27 10:53:33;;;;;;;7.82;2.58;;;15.90;99.90;;;;;;5042864;28;20029;-80
2021/11/27 10:56:07;;;;;;;7.43;1.75;;;15.90;99.90;;;;;;5048426;28;20017;-78
2021/11/27 10:58:59;;;;;;;10.15;1.35;;;15.90;99.90;;;;;;5055410;28;20059;-76
2021/11/27 11:01:27;;;;;;;9.68;1.88;;;15.90;99.90;;;;;;5054552;28;20029;-79
2021/11/27 11:03:55;;;;;;;9.57;1.50;;;15.90;99.90;;;;;;5037546;28;20030;-80
2021/11/27 11:06:25;;;;;;;9.32;2.20;;;15.80;99.90;;;;;;5050483;28;20021;-75
2021/11/27 11:08:54;;;;;;;8.27;2.20;;;15.90;99.90;;;;;;5054333;28;20044;-76
2021/11/27 11:11:24;;;;;;;9.65;1.00;;;15.80;99.90;;;;;;5049620;28;20037;-83
2021/11/27 11:14:00;;;;;;;7.10;1.42;;;15.70;99.90;;;;;;5040799;28;20021;-79
2021/11/27 11:16:32;;;;;;;11.25;1.95;;;15.60;99.90;;;;;;5040548;28;20026;-78
2021/11/27 11:19:19;;;;;;;17.25;2.75;;;15.50;99.90;;;;;;5050571;28;20025;-77
2021/11/27 11:22:19;;;;;;;5.10;1.00;;;15.40;99.90;;;;;;5043772;28;20044;-80
2021/11/27 11:24:48;;;;;;;10.05;1.45;;;15.40;99.90;;;;;;5045324;28;20058;-80
2021/11/27 11:27:40;;;;;;;10.15;2.13;;;15.40;99.90;;;;;;5054614;28;20353;-81
2021/11/27 11:30:08;;;;;;;10.90;1.15;;;15.40;99.90;;;;;;5052863;28;20048;-78
2021/11/27 11:32:35;;;;;;;9.63;2.53;;;15.40;99.90;;;;;;5042832;28;20020;-78
2021/11/27 11:35:03;;;;;;;4.97;1.15;;;15.40;99.90;;;;;;5048095;28;20032;-76
2021/11/27 11:37:31;;;;;;;9.70;1.80;;;15.40;99.90;;;;;;5041750;28;20559;-81
2021/11/27 11:39:58;;;;;;;10.05;1.40;;;15.40;99.90;;;;;;5041610;28;20764;-80
2021/11/27 11:42:26;;;;;;;12.98;1.83;;;15.40;99.90;;;;;;5042826;28;20112;-77
2021/11/27 11:44:54;;;;;;;5.63;1.58;;;15.40;99.90;;;;;;5043021;28;20052;-82
2021/11/27 11:47:23;;;;;;;17.27;3.08;;;15.30;99.90;;;;;;5040977;28;20053;-73
2021/11/27 11:50:02;;;;;;;5.60;1.15;;;15.30;99.90;;;;;;5042149;28;20033;-73
2021/11/27 11:53:02;;;;;;;11.80;2.47;;;15.40;99.90;;;;;;5039668;28;20017;-78
2021/11/27 11:55:30;;;;;;;7.88;1.00;;;15.30;99.90;;;;;;5041090;28;20498;-74
2021/11/27 11:58:01;;;;;;;8.40;1.02;;;15.30;99.90;;;;;;5045318;28;20033;-73
2021/11/27 12:00:36;;;;;;;6.85;1.88;;;15.40;99.90;;;;;;5042209;28;20030;-76
2021/11/27 12:03:11;;;;;;;9.70;1.63;;;15.40;99.90;;;;;;5042997;28;20104;-76
2021/11/27 12:05:58;;;;;;;14.70;2.20;;;15.40;99.90;;;;;;5044375;28;20441;-78
2021/11/27 12:08:52;;;;;;;10.05;2.15;;;15.40;99.90;;;;;;5043116;28;20278;-76
2021/11/27 12:11:47;;;;;;;10.13;1.33;;;15.40;99.90;;;;;;5048888;28;20044;-78
2021/11/27 12:14:24;;;;;;;9.95;1.70;;;15.30;99.90;;;;;;5050817;28;20126;-78
2021/11/27 12:17:16;;;;;;;7.22;1.10;;;15.30;99.90;;;;;;5036807;28;20033;-76
2021/11/27 12:19:52;;;;;;;14.60;2.13;;;15.20;99.90;;;;;;5043474;28;20084;-76
2021/11/27 12:22:39;;;;;;;;;;;15.20;99.90;;;;;;5049734;28;20091;-79
2021/11/27 12:25:24;;;;;;;15.57;2.63;;;15.20;99.90;;;;;;5050883;28;19939;-82
2021/11/27 12:28:03;;;;;;;10.70;1.92;;;15.20;99.90;;;;;;5047355;28;20033;-79
2021/11/27 12:30:37;;;;;;;12.52;1.13;;;15.20;99.90;;;;;;5046486;28;20049;-79
2021/11/27 12:33:05;;;;;;;12.63;1.80;;;15.20;99.90;;;;;;5048678;28;20573;-80
2021/11/27 12:35:32;;;;;;;9.98;1.98;;;15.20;99.90;;;;;;5046689;28;20024;-76
2021/11/27 12:38:09;;;;;;;11.82;3.55;;;15.20;99.90;;;;;;5037803;28;20075;-78
2021/11/27 12:40:41;;;;;;;11.20;1.35;;;15.20;99.90;;;;;;5048492;28;20033;-77
2021/11/27 12:43:14;;;;;;;14.07;2.35;;;15.30;99.90;;;;;;5052145;28;20053;-81
2021/11/27 12:45:43;;;;;;;6.13;1.20;;;15.30;99.90;;;;;;5039663;28;20032;-81
2021/11/27 12:48:29;;;;;;;13.23;1.80;;;15.30;99.90;;;;;;5044070;28;20033;-75
2021/11/27 12:51:19;;;;;;;12.13;1.63;;;15.30;99.90;;;;;;5044898;28;20068;-76
2021/11/27 12:54:03;;;;;;;9.23;1.52;;;15.30;99.90;;;;;;5037697;28;20049;-83
2021/11/27 12:56:52;;;;;;;6.80;1.67;;;15.30;99.90;;;;;;5043192;28;20052;-79
2021/11/27 12:59:22;;;;;;;5.53;1.65;;;15.30;99.90;;;;;;5040902;28;20025;-80